sensor_id;sensor_type;location;lat;lon;timestamp;temperature;humidity
4647;DHT22;2336;47.822;7.564;2023-03-22T00:02:23;11.60;99.90
4647;DHT22;2336;47.822;7.564;2023-03-22T00:04:51;11.50;99.90
4647;DHT22;2336;47.822;7.564;2023-03-22T00:07:19;11.50;99.90
4647;DHT22;2336;47.822;7.564;2023-03-22T00:09:45;11.40;99.90
4647;DHT22;2336;47.822;7.564;2023-03-22T00:12:12;11.40;99.90
4647;DHT22;2336;47.822;7.564;2023-03-22T00:14:39;11.40;99.90
4647;DHT22;2336;47.822;7.564;2023-03-22T00:17:05;11.30;99.90
4647;DHT22;2336;47.822;7.564;2023-03-22T00:19:32;11.40;99.90
4647;DHT22;2336;47.822;7.564;2023-03-22T00:21:59;11.40;99.90
4647;DHT22;2336;47.822;7.564;2023-03-22T00:24:27;11.50;99.90
4647;DHT22;2336;47.822;7.564;2023-03-22T00:26:54;11.40;99.90
4647;DHT22;2336;47.822;7.564;2023-03-22T00:29:20;11.50;99.90
4647;DHT22;2336;47.822;7.564;2023-03-22T00:31:48;11.50;99.90
4647;DHT22;2336;47.822;7.564;2023-03-22T00:34:16;11.50;99.90
4647;DHT22;2336;47.822;7.564;2023-03-22T00:36:43;11.50;99.90
4647;DHT22;2336;47.822;7.564;2023-03-22T00:39:09;11.40;99.90
4647;DHT22;2336;47.822;7.564;2023-03-22T00:41:38;11.40;99.90
4647;DHT22;2336;47.822;7.564;2023-03-22T00:44:05;11.50;99.90
4647;DHT22;2336;47.822;7.564;2023-03-22T00:46:31;11.50;99.90
4647;DHT22;2336;47.822;7.564;2023-03-22T00:48:58;11.50;99.90
4647;DHT22;2336;47.822;7.564;2023-03-22T00:51:25;11.40;99.90
4647;DHT22;2336;47.822;7.564;2023-03-22T00:53:51;11.40;99.90
4647;DHT22;2336;47.822;7.564;2023-03-22T00:56:19;11.40;99.90
4647;DHT22;2336;47.822;7.564;2023-03-22T00:58:48;11.40;99.90
4647;DHT22;2336;47.822;7.564;2023-03-22T01:01:16;11.30;99.90
4647;DHT22;2336;47.822;7.564;2023-03-22T01:03:43;11.30;99.90
4647;DHT22;2336;47.822;7.564;2023-03-22T01:06:14;11.30;99.90
4647;DHT22;2336;47.822;7.564;2023-03-22T01:08:41;11.30;99.90
4647;DHT22;2336;47.822;7.564;2023-03-22T01:11:09;11.30;99.90
4647;DHT22;2336;47.822;7.564;2023-03-22T01:13:36;11.20;99.90
4647;DHT22;2336;47.822;7.564;2023-03-22T01:16:06;11.20;99.90
4647;DHT22;2336;47.822;7.564;2023-03-22T01:18:33;11.20;99.90
4647;DHT22;2336;47.822;7.564;2023-03-22T01:21:00;11.20;99.90
4647;DHT22;2336;47.822;7.564;2023-03-22T01:23:27;11.20;99.90
4647;DHT22;2336;47.822;7.564;2023-03-22T01:25:53;11.10;99.90
4647;DHT22;2336;47.822;7.564;2023-03-22T01:28:20;11.10;99.90
4647;DHT22;2336;47.822;7.564;2023-03-22T01:30:47;11.10;99.90
4647;DHT22;2336;47.822;7.564;2023-03-22T01:33:16;11.10;99.90
4647;DHT22;2336;47.822;7.564;2023-03-22T01:35:43;11.00;99.90
4647;DHT22;2336;47.822;7.564;2023-03-22T01:38:10;11.00;99.90
4647;DHT22;2336;47.822;7.564;2023-03-22T01:40:37;11.00;99.90
4647;DHT22;2336;47.822;7.564;2023-03-22T01:43:09;10.90;99.90
4647;DHT22;2336;47.822;7.564;2023-03-22T01:45:39;10.90;99.90
4647;DHT22;2336;47.822;7.564;2023-03-22T01:48:14;10.80;99.90
4647;DHT22;2336;47.822;7.564;2023-03-22T01:50:48;10.70;99.90
4647;DHT22;2336;47.822;7.564;2023-03-22T01:53:22;10.70;99.90
4647;DHT22;2336;47.822;7.564;2023-03-22T01:55:51;10.60;99.90
4647;DHT22;2336;47.822;7.564;2023-03-22T01:58:18;10.60;99.90
4647;DHT22;2336;47.822;7.564;2023-03-22T02:00:49;10.50;99.90
4647;DHT22;2336;47.822;7.564;2023-03-22T02:03:20;10.50;99.90
4647;DHT22;2336;47.822;7.564;2023-03-22T02:05:49;10.50;99.90
4647;DHT22;2336;47.822;7.564;2023-03-22T02:08:16;10.40;99.90
4647;DHT22;2336;47.822;7.564;2023-03-22T02:10:43;10.40;99.90
4647;DHT22;2336;47.822;7.564;2023-03-22T02:13:19;10.40;99.90
4647;DHT22;2336;47.822;7.564;2023-03-22T02:15:56;10.30;99.90
4647;DHT22;2336;47.822;7.564;2023-03-22T02:18:37;10.30;99.90
4647;DHT22;2336;47.822;7.564;2023-03-22T02:21:25;10.30;99.90
4647;DHT22;2336;47.822;7.564;2023-03-22T02:24:28;10.30;99.90
4647;DHT22;2336;47.822;7.564;2023-03-22T02:27:29;10.20;99.90
4647;DHT22;2336;47.822;7.564;2023-03-22T02:30:18;10.10;99.90
4647;DHT22;2336;47.822;7.564;2023-03-22T02:33:01;10.10;99.90
4647;DHT22;2336;47.822;7.564;2023-03-22T02:38:50;10.00;99.90
4647;DHT22;2336;47.822;7.564;2023-03-22T02:41:28;10.00;99.90
4647;DHT22;2336;47.822;7.564;2023-03-22T02:44:05;9.90;99.90
4647;DHT22;2336;47.822;7.564;2023-03-22T02:46:39;9.90;99.90
4647;DHT22;2336;47.822;7.564;2023-03-22T02:49:15;9.90;99.90
4647;DHT22;2336;47.822;7.564;2023-03-22T02:51:46;9.90;99.90
4647;DHT22;2336;47.822;7.564;2023-03-22T02:54:20;9.90;99.90
4647;DHT22;2336;47.822;7.564;2023-03-22T02:56:52;9.90;99.90
4647;DHT22;2336;47.822;7.564;2023-03-22T02:59:21;10.00;99.90
4647;DHT22;2336;47.822;7.564;2023-03-22T03:01:52;10.00;99.90
4647;DHT22;2336;47.822;7.564;2023-03-22T03:04:23;10.10;99.90
4647;DHT22;2336;47.822;7.564;2023-03-22T03:06:55;10.10;99.90
4647;DHT22;2336;47.822;7.564;2023-03-22T03:09:24;10.20;99.90
4647;DHT22;2336;47.822;7.564;2023-03-22T03:11:52;10.10;99.90
4647;DHT22;2336;47.822;7.564;2023-03-22T03:14:21;10.10;99.90
4647;DHT22;2336;47.822;7.564;2023-03-22T03:16:57;10.10;99.90
4647;DHT22;2336;47.822;7.564;2023-03-22T03:19:32;10.10;99.90
4647;DHT22;2336;47.822;7.564;2023-03-22T03:22:03;10.00;99.90
4647;DHT22;2336;47.822;7.564;2023-03-22T03:24:35;9.90;99.90
4647;DHT22;2336;47.822;7.564;2023-03-22T03:27:07;9.90;99.90
4647;DHT22;2336;47.822;7.564;2023-03-22T03:29:39;9.80;99.90
4647;DHT22;2336;47.822;7.564;2023-03-22T03:32:11;9.80;99.90
4647;DHT22;2336;47.822;7.564;2023-03-22T03:34:43;9.70;99.90
4647;DHT22;2336;47.822;7.564;2023-03-22T03:37:16;9.60;99.90
4647;DHT22;2336;47.822;7.564;2023-03-22T03:39:50;9.50;99.90
4647;DHT22;2336;47.822;7.564;2023-03-22T03:42:18;9.40;99.90
4647;DHT22;2336;47.822;7.564;2023-03-22T03:44:46;9.40;99.90
4647;DHT22;2336;47.822;7.564;2023-03-22T03:47:13;9.30;99.90
4647;DHT22;2336;47.822;7.564;2023-03-22T03:49:41;9.30;99.90
4647;DHT22;2336;47.822;7.564;2023-03-22T03:52:08;9.30;99.90
4647;DHT22;2336;47.822;7.564;2023-03-22T03:54:35;9.30;99.90
4647;DHT22;2336;47.822;7.564;2023-03-22T03:57:03;9.20;99.90
4647;DHT22;2336;47.822;7.564;2023-03-22T03:59:30;9.20;99.90
4647;DHT22;2336;47.822;7.564;2023-03-22T04:01:57;9.20;99.90
4647;DHT22;2336;47.822;7.564;2023-03-22T04:04:25;9.20;99.90
4647;DHT22;2336;47.822;7.564;2023-03-22T04:06:52;9.20;99.90
4647;DHT22;2336;47.822;7.564;2023-03-22T04:09:21;9.20;99.90
4647;DHT22;2336;47.822;7.564;2023-03-22T04:11:48;9.20;99.90
4647;DHT22;2336;47.822;7.564;2023-03-22T04:14:16;9.10;99.90
4647;DHT22;2336;47.822;7.564;2023-03-22T04:16:43;9.10;99.90
4647;DHT22;2336;47.822;7.564;2023-03-22T04:19:09;9.10;99.90
4647;DHT22;2336;47.822;7.564;2023-03-22T04:21:36;9.10;99.90
4647;DHT22;2336;47.822;7.564;2023-03-22T04:24:03;9.10;99.90
4647;DHT22;2336;47.822;7.564;2023-03-22T04:26:31;9.10;99.90
4647;DHT22;2336;47.822;7.564;2023-03-22T04:28:57;9.00;99.90
4647;DHT22;2336;47.822;7.564;2023-03-22T04:31:26;9.00;99.90
4647;DHT22;2336;47.822;7.564;2023-03-22T04:33:53;9.00;99.90
4647;DHT22;2336;47.822;7.564;2023-03-22T04:36:21;9.00;99.90
4647;DHT22;2336;47.822;7.564;2023-03-22T04:38:48;9.00;99.90
4647;DHT22;2336;47.822;7.564;2023-03-22T04:41:15;8.90;99.90
4647;DHT22;2336;47.822;7.564;2023-03-22T04:43:42;8.90;99.90
4647;DHT22;2336;47.822;7.564;2023-03-22T04:46:12;8.80;99.90
4647;DHT22;2336;47.822;7.564;2023-03-22T04:48:41;8.80;99.90
4647;DHT22;2336;47.822;7.564;2023-03-22T04:51:09;8.80;99.90
4647;DHT22;2336;47.822;7.564;2023-03-22T04:53:36;8.80;99.90
4647;DHT22;2336;47.822;7.564;2023-03-22T04:56:05;8.80;99.90
4647;DHT22;2336;47.822;7.564;2023-03-22T04:58:33;8.70;99.90
4647;DHT22;2336;47.822;7.564;2023-03-22T05:01:01;8.70;99.90
4647;DHT22;2336;47.822;7.564;2023-03-22T05:03:28;8.60;99.90
4647;DHT22;2336;47.822;7.564;2023-03-22T05:05:57;8.50;99.90
4647;DHT22;2336;47.822;7.564;2023-03-22T05:08:26;8.50;99.90
4647;DHT22;2336;47.822;7.564;2023-03-22T05:10:54;8.40;99.90
4647;DHT22;2336;47.822;7.564;2023-03-22T05:13:23;8.40;99.90
4647;DHT22;2336;47.822;7.564;2023-03-22T05:15:50;8.40;99.90
4647;DHT22;2336;47.822;7.564;2023-03-22T05:18:19;8.30;99.90
4647;DHT22;2336;47.822;7.564;2023-03-22T05:20:47;8.30;99.90
4647;DHT22;2336;47.822;7.564;2023-03-22T05:23:15;8.30;99.90
4647;DHT22;2336;47.822;7.564;2023-03-22T05:25:43;8.20;99.90
4647;DHT22;2336;47.822;7.564;2023-03-22T05:28:11;8.20;99.90
4647;DHT22;2336;47.822;7.564;2023-03-22T05:30:39;8.20;99.90
4647;DHT22;2336;47.822;7.564;2023-03-22T05:33:06;8.20;99.90
4647;DHT22;2336;47.822;7.564;2023-03-22T05:35:35;8.20;99.90
4647;DHT22;2336;47.822;7.564;2023-03-22T05:38:02;8.10;99.90
4647;DHT22;2336;47.822;7.564;2023-03-22T05:40:30;8.10;99.90
4647;DHT22;2336;47.822;7.564;2023-03-22T05:42:57;8.10;99.90
4647;DHT22;2336;47.822;7.564;2023-03-22T05:45:24;8.10;99.90
4647;DHT22;2336;47.822;7.564;2023-03-22T05:47:51;8.10;99.90
4647;DHT22;2336;47.822;7.564;2023-03-22T05:50:19;8.10;99.90
4647;DHT22;2336;47.822;7.564;2023-03-22T05:52:47;8.00;99.90
4647;DHT22;2336;47.822;7.564;2023-03-22T05:55:15;8.00;99.90
4647;DHT22;2336;47.822;7.564;2023-03-22T05:57:45;8.00;99.90
4647;DHT22;2336;47.822;7.564;2023-03-22T06:00:14;8.00;99.90
4647;DHT22;2336;47.822;7.564;2023-03-22T06:02:41;8.00;99.90
4647;DHT22;2336;47.822;7.564;2023-03-22T06:05:09;8.00;99.90
4647;DHT22;2336;47.822;7.564;2023-03-22T06:07:36;8.00;99.90
4647;DHT22;2336;47.822;7.564;2023-03-22T06:10:04;8.00;99.90
4647;DHT22;2336;47.822;7.564;2023-03-22T06:12:31;8.00;99.90
4647;DHT22;2336;47.822;7.564;2023-03-22T06:15:00;8.00;99.90
4647;DHT22;2336;47.822;7.564;2023-03-22T06:17:26;8.00;99.90
4647;DHT22;2336;47.822;7.564;2023-03-22T06:19:53;8.10;99.90
4647;DHT22;2336;47.822;7.564;2023-03-22T06:22:20;8.20;99.90
4647;DHT22;2336;47.822;7.564;2023-03-22T06:24:47;8.20;99.90
4647;DHT22;2336;47.822;7.564;2023-03-22T06:27:14;8.30;99.90
4647;DHT22;2336;47.822;7.564;2023-03-22T06:29:40;8.20;99.90
4647;DHT22;2336;47.822;7.564;2023-03-22T06:32:09;8.30;99.90
4647;DHT22;2336;47.822;7.564;2023-03-22T06:34:35;8.30;99.90
4647;DHT22;2336;47.822;7.564;2023-03-22T06:37:02;8.40;99.90
4647;DHT22;2336;47.822;7.564;2023-03-22T06:39:29;8.50;99.90
4647;DHT22;2336;47.822;7.564;2023-03-22T06:41:56;8.50;99.90
4647;DHT22;2336;47.822;7.564;2023-03-22T06:44:23;8.60;99.90
4647;DHT22;2336;47.822;7.564;2023-03-22T06:46:50;8.60;99.90
4647;DHT22;2336;47.822;7.564;2023-03-22T06:49:18;8.70;99.90
4647;DHT22;2336;47.822;7.564;2023-03-22T06:51:46;8.80;99.90
4647;DHT22;2336;47.822;7.564;2023-03-22T06:54:12;8.80;99.90
4647;DHT22;2336;47.822;7.564;2023-03-22T06:56:41;8.90;99.90
4647;DHT22;2336;47.822;7.564;2023-03-22T06:59:07;9.00;99.90
4647;DHT22;2336;47.822;7.564;2023-03-22T07:01:34;9.10;99.90
4647;DHT22;2336;47.822;7.564;2023-03-22T07:04:01;9.20;99.90
4647;DHT22;2336;47.822;7.564;2023-03-22T07:06:29;9.30;99.90
4647;DHT22;2336;47.822;7.564;2023-03-22T07:08:57;9.40;99.90
4647;DHT22;2336;47.822;7.564;2023-03-22T07:11:24;9.50;99.90
4647;DHT22;2336;47.822;7.564;2023-03-22T07:13:51;9.60;99.90
4647;DHT22;2336;47.822;7.564;2023-03-22T07:16:18;9.80;99.90
4647;DHT22;2336;47.822;7.564;2023-03-22T07:18:45;9.90;99.90
4647;DHT22;2336;47.822;7.564;2023-03-22T07:21:13;9.90;99.90
4647;DHT22;2336;47.822;7.564;2023-03-22T07:23:41;10.00;99.90
4647;DHT22;2336;47.822;7.564;2023-03-22T07:26:07;10.10;99.90
4647;DHT22;2336;47.822;7.564;2023-03-22T07:28:34;10.20;99.90
4647;DHT22;2336;47.822;7.564;2023-03-22T07:31:03;10.30;99.90
4647;DHT22;2336;47.822;7.564;2023-03-22T07:33:30;10.30;99.90
4647;DHT22;2336;47.822;7.564;2023-03-22T07:35:57;10.40;99.90
4647;DHT22;2336;47.822;7.564;2023-03-22T07:38:24;10.60;99.90
4647;DHT22;2336;47.822;7.564;2023-03-22T07:40:52;10.70;99.90
4647;DHT22;2336;47.822;7.564;2023-03-22T07:43:19;10.80;99.90
4647;DHT22;2336;47.822;7.564;2023-03-22T07:45:47;10.90;99.90
4647;DHT22;2336;47.822;7.564;2023-03-22T07:48:15;11.00;99.90
4647;DHT22;2336;47.822;7.564;2023-03-22T07:50:42;11.10;99.90
4647;DHT22;2336;47.822;7.564;2023-03-22T07:53:08;11.20;99.90
4647;DHT22;2336;47.822;7.564;2023-03-22T07:55:36;11.30;99.90
4647;DHT22;2336;47.822;7.564;2023-03-22T07:58:04;11.50;99.90
4647;DHT22;2336;47.822;7.564;2023-03-22T08:00:31;11.60;99.90
4647;DHT22;2336;47.822;7.564;2023-03-22T08:02:58;11.80;99.90
4647;DHT22;2336;47.822;7.564;2023-03-22T08:05:25;12.10;99.90
4647;DHT22;2336;47.822;7.564;2023-03-22T08:07:52;12.20;99.90
4647;DHT22;2336;47.822;7.564;2023-03-22T08:10:19;12.50;99.90
4647;DHT22;2336;47.822;7.564;2023-03-22T08:12:45;12.60;99.90
4647;DHT22;2336;47.822;7.564;2023-03-22T08:15:13;12.80;99.90
4647;DHT22;2336;47.822;7.564;2023-03-22T08:17:40;12.90;99.90
4647;DHT22;2336;47.822;7.564;2023-03-22T08:20:08;13.00;99.90
4647;DHT22;2336;47.822;7.564;2023-03-22T08:22:36;13.20;99.90
4647;DHT22;2336;47.822;7.564;2023-03-22T08:25:04;13.40;99.90
4647;DHT22;2336;47.822;7.564;2023-03-22T08:27:31;13.50;99.90
4647;DHT22;2336;47.822;7.564;2023-03-22T08:29:59;13.60;99.90
4647;DHT22;2336;47.822;7.564;2023-03-22T08:32:27;13.70;99.90
4647;DHT22;2336;47.822;7.564;2023-03-22T08:34:53;13.90;99.90
4647;DHT22;2336;47.822;7.564;2023-03-22T08:37:20;14.10;99.90
4647;DHT22;2336;47.822;7.564;2023-03-22T08:39:47;14.20;99.90
4647;DHT22;2336;47.822;7.564;2023-03-22T08:42:13;14.30;99.90
4647;DHT22;2336;47.822;7.564;2023-03-22T08:44:40;14.40;99.90
4647;DHT22;2336;47.822;7.564;2023-03-22T08:47:07;14.50;99.90
4647;DHT22;2336;47.822;7.564;2023-03-22T08:49:35;14.60;99.90
4647;DHT22;2336;47.822;7.564;2023-03-22T08:52:02;14.70;99.90
4647;DHT22;2336;47.822;7.564;2023-03-22T08:54:32;14.70;99.90
4647;DHT22;2336;47.822;7.564;2023-03-22T08:56:58;14.80;99.90
4647;DHT22;2336;47.822;7.564;2023-03-22T08:59:27;14.90;99.90
4647;DHT22;2336;47.822;7.564;2023-03-22T09:01:54;14.90;99.90
4647;DHT22;2336;47.822;7.564;2023-03-22T09:04:21;14.90;99.90
4647;DHT22;2336;47.822;7.564;2023-03-22T09:06:49;14.80;99.90
4647;DHT22;2336;47.822;7.564;2023-03-22T09:09:15;14.80;99.90
4647;DHT22;2336;47.822;7.564;2023-03-22T09:11:42;14.90;99.90
4647;DHT22;2336;47.822;7.564;2023-03-22T09:14:09;14.90;99.90
4647;DHT22;2336;47.822;7.564;2023-03-22T09:16:36;15.10;99.90
4647;DHT22;2336;47.822;7.564;2023-03-22T09:19:02;15.20;99.90
4647;DHT22;2336;47.822;7.564;2023-03-22T09:21:29;15.30;99.90
4647;DHT22;2336;47.822;7.564;2023-03-22T09:23:57;15.40;99.90
4647;DHT22;2336;47.822;7.564;2023-03-22T09:26:24;15.40;99.90
4647;DHT22;2336;47.822;7.564;2023-03-22T09:28:51;15.50;99.90
4647;DHT22;2336;47.822;7.564;2023-03-22T09:31:18;15.60;99.90
4647;DHT22;2336;47.822;7.564;2023-03-22T09:33:45;15.70;99.90
4647;DHT22;2336;47.822;7.564;2023-03-22T09:36:11;15.80;99.90
4647;DHT22;2336;47.822;7.564;2023-03-22T09:38:38;15.90;99.90
4647;DHT22;2336;47.822;7.564;2023-03-22T09:41:11;16.00;99.90
4647;DHT22;2336;47.822;7.564;2023-03-22T09:43:42;16.10;99.90
4647;DHT22;2336;47.822;7.564;2023-03-22T09:46:14;16.10;99.90
4647;DHT22;2336;47.822;7.564;2023-03-22T09:48:43;16.10;99.90
4647;DHT22;2336;47.822;7.564;2023-03-22T09:51:22;16.30;99.90
4647;DHT22;2336;47.822;7.564;2023-03-22T09:53:52;16.40;99.90
4647;DHT22;2336;47.822;7.564;2023-03-22T09:56:22;16.50;99.90
4647;DHT22;2336;47.822;7.564;2023-03-22T09:58:55;16.60;99.90
4647;DHT22;2336;47.822;7.564;2023-03-22T10:01:29;16.70;99.90
4647;DHT22;2336;47.822;7.564;2023-03-22T10:04:14;16.90;99.90
4647;DHT22;2336;47.822;7.564;2023-03-22T10:06:49;17.00;99.90
4647;DHT22;2336;47.822;7.564;2023-03-22T10:09:21;17.20;99.90
4647;DHT22;2336;47.822;7.564;2023-03-22T10:11:55;17.30;99.90
4647;DHT22;2336;47.822;7.564;2023-03-22T10:14:29;17.50;99.90
4647;DHT22;2336;47.822;7.564;2023-03-22T10:17:00;17.50;99.20
4647;DHT22;2336;47.822;7.564;2023-03-22T10:19:31;17.50;98.90
4647;DHT22;2336;47.822;7.564;2023-03-22T10:22:01;17.50;99.30
4647;DHT22;2336;47.822;7.564;2023-03-22T10:24:32;17.50;98.90
4647;DHT22;2336;47.822;7.564;2023-03-22T10:27:01;17.70;98.70
4647;DHT22;2336;47.822;7.564;2023-03-22T10:29:31;17.80;98.90
4647;DHT22;2336;47.822;7.564;2023-03-22T10:32:11;17.90;98.60
4647;DHT22;2336;47.822;7.564;2023-03-22T10:34:38;18.10;98.70
4647;DHT22;2336;47.822;7.564;2023-03-22T10:37:08;18.10;97.90
4647;DHT22;2336;47.822;7.564;2023-03-22T10:39:37;18.00;96.60
4647;DHT22;2336;47.822;7.564;2023-03-22T10:42:09;17.90;96.70
4647;DHT22;2336;47.822;7.564;2023-03-22T10:44:42;17.90;97.60
4647;DHT22;2336;47.822;7.564;2023-03-22T10:47:14;18.10;97.80
4647;DHT22;2336;47.822;7.564;2023-03-22T10:49:45;18.30;96.60
4647;DHT22;2336;47.822;7.564;2023-03-22T10:52:27;18.30;95.40
4647;DHT22;2336;47.822;7.564;2023-03-22T10:54:59;18.30;95.50
4647;DHT22;2336;47.822;7.564;2023-03-22T10:57:27;18.50;95.00
4647;DHT22;2336;47.822;7.564;2023-03-22T10:59:55;18.70;94.90
4647;DHT22;2336;47.822;7.564;2023-03-22T11:22:36;20.90;91.00
4647;DHT22;2336;47.822;7.564;2023-03-22T11:25:08;21.30;90.30
4647;DHT22;2336;47.822;7.564;2023-03-22T11:27:49;20.90;89.10
4647;DHT22;2336;47.822;7.564;2023-03-22T11:30:19;21.30;88.20
4647;DHT22;2336;47.822;7.564;2023-03-22T11:32:46;21.50;87.40
4647;DHT22;2336;47.822;7.564;2023-03-22T11:35:16;21.50;85.30
4647;DHT22;2336;47.822;7.564;2023-03-22T11:37:46;21.80;84.20
4647;DHT22;2336;47.822;7.564;2023-03-22T11:40:15;21.80;83.20
4647;DHT22;2336;47.822;7.564;2023-03-22T11:42:42;21.60;83.80
4647;DHT22;2336;47.822;7.564;2023-03-22T11:45:13;21.30;83.30
4647;DHT22;2336;47.822;7.564;2023-03-22T11:47:40;20.80;85.70
4647;DHT22;2336;47.822;7.564;2023-03-22T11:50:27;20.70;85.10
4647;DHT22;2336;47.822;7.564;2023-03-22T11:53:00;20.60;84.90
4647;DHT22;2336;47.822;7.564;2023-03-22T11:55:28;20.20;83.70
4647;DHT22;2336;47.822;7.564;2023-03-22T11:57:57;20.60;84.40
4647;DHT22;2336;47.822;7.564;2023-03-22T12:00:26;20.80;84.80
4647;DHT22;2336;47.822;7.564;2023-03-22T12:02:58;21.00;81.60
4647;DHT22;2336;47.822;7.564;2023-03-22T12:05:28;20.50;82.60
4647;DHT22;2336;47.822;7.564;2023-03-22T12:08:00;21.30;81.50
4647;DHT22;2336;47.822;7.564;2023-03-22T12:10:30;21.60;79.90
4647;DHT22;2336;47.822;7.564;2023-03-22T12:13:01;21.70;80.20
4647;DHT22;2336;47.822;7.564;2023-03-22T12:15:31;21.80;81.60
4647;DHT22;2336;47.822;7.564;2023-03-22T12:18:02;21.90;79.80
4647;DHT22;2336;47.822;7.564;2023-03-22T12:20:36;21.80;78.40
4647;DHT22;2336;47.822;7.564;2023-03-22T12:23:12;21.70;77.50
4647;DHT22;2336;47.822;7.564;2023-03-22T12:25:42;21.80;77.10
4647;DHT22;2336;47.822;7.564;2023-03-22T12:28:14;21.80;77.10
4647;DHT22;2336;47.822;7.564;2023-03-22T12:30:45;21.30;77.50
4647;DHT22;2336;47.822;7.564;2023-03-22T12:33:17;21.60;80.60
4647;DHT22;2336;47.822;7.564;2023-03-22T12:35:46;22.10;78.20
4647;DHT22;2336;47.822;7.564;2023-03-22T12:38:23;22.00;77.40
4647;DHT22;2336;47.822;7.564;2023-03-22T12:40:53;21.20;77.00
4647;DHT22;2336;47.822;7.564;2023-03-22T12:43:29;20.60;77.10
4647;DHT22;2336;47.822;7.564;2023-03-22T12:45:59;20.30;80.30
4647;DHT22;2336;47.822;7.564;2023-03-22T12:48:32;20.60;78.20
4647;DHT22;2336;47.822;7.564;2023-03-22T12:51:03;21.10;79.40
4647;DHT22;2336;47.822;7.564;2023-03-22T12:53:34;21.40;77.90
4647;DHT22;2336;47.822;7.564;2023-03-22T12:56:08;21.50;78.00
4647;DHT22;2336;47.822;7.564;2023-03-22T12:58:35;21.40;77.90
4647;DHT22;2336;47.822;7.564;2023-03-22T13:01:15;21.40;79.30
4647;DHT22;2336;47.822;7.564;2023-03-22T13:03:46;21.10;78.60
4647;DHT22;2336;47.822;7.564;2023-03-22T13:06:32;20.70;75.00
4647;DHT22;2336;47.822;7.564;2023-03-22T13:09:17;20.70;78.00
4647;DHT22;2336;47.822;7.564;2023-03-22T13:11:45;20.80;75.50
4647;DHT22;2336;47.822;7.564;2023-03-22T13:17:39;20.60;73.50
4647;DHT22;2336;47.822;7.564;2023-03-22T13:20:22;20.80;75.10
4647;DHT22;2336;47.822;7.564;2023-03-22T13:23:03;20.90;74.70
4647;DHT22;2336;47.822;7.564;2023-03-22T13:25:36;21.00;73.60
4647;DHT22;2336;47.822;7.564;2023-03-22T13:28:20;21.10;74.50
4647;DHT22;2336;47.822;7.564;2023-03-22T13:30:50;21.10;73.00
4647;DHT22;2336;47.822;7.564;2023-03-22T13:33:20;21.00;74.20
4647;DHT22;2336;47.822;7.564;2023-03-22T13:35:51;21.10;74.90
4647;DHT22;2336;47.822;7.564;2023-03-22T13:38:23;21.40;73.70
4647;DHT22;2336;47.822;7.564;2023-03-22T13:40:59;21.50;72.40
4647;DHT22;2336;47.822;7.564;2023-03-22T13:43:30;21.20;71.20
4647;DHT22;2336;47.822;7.564;2023-03-22T13:46:10;21.40;73.70
4647;DHT22;2336;47.822;7.564;2023-03-22T13:48:42;21.50;74.40
4647;DHT22;2336;47.822;7.564;2023-03-22T13:51:13;21.60;72.40
4647;DHT22;2336;47.822;7.564;2023-03-22T13:53:54;21.50;74.70
4647;DHT22;2336;47.822;7.564;2023-03-22T13:56:46;21.40;71.50
4647;DHT22;2336;47.822;7.564;2023-03-22T13:59:22;21.50;72.60
4647;DHT22;2336;47.822;7.564;2023-03-22T14:01:51;21.70;71.40
4647;DHT22;2336;47.822;7.564;2023-03-22T14:04:23;21.30;71.40
4647;DHT22;2336;47.822;7.564;2023-03-22T14:06:54;21.50;74.80
4647;DHT22;2336;47.822;7.564;2023-03-22T14:09:27;21.60;73.20
4647;DHT22;2336;47.822;7.564;2023-03-22T14:12:02;21.20;71.90
4647;DHT22;2336;47.822;7.564;2023-03-22T14:14:35;20.80;73.40
4647;DHT22;2336;47.822;7.564;2023-03-22T14:17:20;20.70;72.30
4647;DHT22;2336;47.822;7.564;2023-03-22T14:19:52;20.70;73.60
4647;DHT22;2336;47.822;7.564;2023-03-22T14:22:25;20.60;70.80
4647;DHT22;2336;47.822;7.564;2023-03-22T14:24:54;21.00;72.00
4647;DHT22;2336;47.822;7.564;2023-03-22T14:27:24;21.20;72.10
4647;DHT22;2336;47.822;7.564;2023-03-22T14:29:52;21.50;72.40
4647;DHT22;2336;47.822;7.564;2023-03-22T14:32:21;21.70;73.00
4647;DHT22;2336;47.822;7.564;2023-03-22T14:35:05;21.80;71.90
4647;DHT22;2336;47.822;7.564;2023-03-22T14:37:34;21.10;69.20
4647;DHT22;2336;47.822;7.564;2023-03-22T14:40:11;20.70;71.30
4647;DHT22;2336;47.822;7.564;2023-03-22T14:42:42;20.80;73.20
4647;DHT22;2336;47.822;7.564;2023-03-22T14:45:15;20.80;73.50
4647;DHT22;2336;47.822;7.564;2023-03-22T14:47:45;20.60;73.30
4647;DHT22;2336;47.822;7.564;2023-03-22T14:50:14;20.60;72.60
4647;DHT22;2336;47.822;7.564;2023-03-22T14:52:41;20.90;71.70
4647;DHT22;2336;47.822;7.564;2023-03-22T14:55:14;21.00;71.20
4647;DHT22;2336;47.822;7.564;2023-03-22T14:57:47;21.00;71.10
4647;DHT22;2336;47.822;7.564;2023-03-22T15:00:16;21.00;70.10
4647;DHT22;2336;47.822;7.564;2023-03-22T15:02:47;21.00;70.50
4647;DHT22;2336;47.822;7.564;2023-03-22T15:05:18;21.00;71.00
4647;DHT22;2336;47.822;7.564;2023-03-22T15:07:47;20.70;71.00
4647;DHT22;2336;47.822;7.564;2023-03-22T15:10:16;20.90;70.50
4647;DHT22;2336;47.822;7.564;2023-03-22T15:12:47;20.90;69.60
4647;DHT22;2336;47.822;7.564;2023-03-22T15:15:16;21.00;70.70
4647;DHT22;2336;47.822;7.564;2023-03-22T15:17:45;20.70;69.50
4647;DHT22;2336;47.822;7.564;2023-03-22T15:20:16;20.60;69.40
4647;DHT22;2336;47.822;7.564;2023-03-22T15:22:49;20.50;70.10
4647;DHT22;2336;47.822;7.564;2023-03-22T15:25:17;20.40;70.40
4647;DHT22;2336;47.822;7.564;2023-03-22T15:27:45;20.10;70.50
4647;DHT22;2336;47.822;7.564;2023-03-22T15:30:17;20.20;70.80
4647;DHT22;2336;47.822;7.564;2023-03-22T15:32:45;20.30;71.90
4647;DHT22;2336;47.822;7.564;2023-03-22T15:35:14;20.40;71.50
4647;DHT22;2336;47.822;7.564;2023-03-22T15:37:41;20.40;71.10
4647;DHT22;2336;47.822;7.564;2023-03-22T15:40:37;20.30;69.90
4647;DHT22;2336;47.822;7.564;2023-03-22T15:43:08;20.30;71.60
4647;DHT22;2336;47.822;7.564;2023-03-22T15:45:36;20.40;71.80
4647;DHT22;2336;47.822;7.564;2023-03-22T15:48:04;20.30;70.60
4647;DHT22;2336;47.822;7.564;2023-03-22T15:50:39;20.20;70.30
4647;DHT22;2336;47.822;7.564;2023-03-22T15:53:20;20.20;69.90
4647;DHT22;2336;47.822;7.564;2023-03-22T15:55:49;19.90;69.80
4647;DHT22;2336;47.822;7.564;2023-03-22T15:58:26;19.90;71.70
4647;DHT22;2336;47.822;7.564;2023-03-22T16:01:06;19.90;71.20
4647;DHT22;2336;47.822;7.564;2023-03-22T16:03:43;19.90;71.90
4647;DHT22;2336;47.822;7.564;2023-03-22T16:06:12;19.80;72.00
4647;DHT22;2336;47.822;7.564;2023-03-22T16:08:39;19.80;71.90
4647;DHT22;2336;47.822;7.564;2023-03-22T16:11:06;19.70;71.30
4647;DHT22;2336;47.822;7.564;2023-03-22T16:13:35;19.70;71.70
4647;DHT22;2336;47.822;7.564;2023-03-22T16:16:02;19.70;72.00
4647;DHT22;2336;47.822;7.564;2023-03-22T16:18:29;19.60;73.60
4647;DHT22;2336;47.822;7.564;2023-03-22T16:20:57;19.60;72.40
4647;DHT22;2336;47.822;7.564;2023-03-22T16:23:24;19.60;72.90
4647;DHT22;2336;47.822;7.564;2023-03-22T16:25:51;19.50;72.30
4647;DHT22;2336;47.822;7.564;2023-03-22T16:28:18;19.40;73.00
4647;DHT22;2336;47.822;7.564;2023-03-22T16:30:47;19.40;71.90
4647;DHT22;2336;47.822;7.564;2023-03-22T16:33:15;19.30;72.40
4647;DHT22;2336;47.822;7.564;2023-03-22T16:35:42;19.30;73.00
4647;DHT22;2336;47.822;7.564;2023-03-22T16:38:11;19.30;73.10
4647;DHT22;2336;47.822;7.564;2023-03-22T16:40:44;19.20;74.10
4647;DHT22;2336;47.822;7.564;2023-03-22T16:43:11;19.10;74.50
4647;DHT22;2336;47.822;7.564;2023-03-22T16:45:38;19.00;74.20
4647;DHT22;2336;47.822;7.564;2023-03-22T16:48:06;19.00;74.50
4647;DHT22;2336;47.822;7.564;2023-03-22T16:50:34;18.90;75.10